Time;durP1;ratioP1;P1;durP2;ratioP2;P2;SDS_P1;SDS_P2;PMS_P1;PMS_P2;Temp;Humidity;BMP_temperature;BMP_pressure;BME280_temperature;BME280_humidity;BME280_pressure;Samples;Min_cycle;Max_cycle;Signal;HPM_P1;HPM_P2
2022/12/03 00:01:31;;;;;;;21.43;17.17;;;;;;;;;;5070704;28;20443;-76
2022/12/03 00:03:58;;;;;;;22.67;17.70;;;;;;;;;;5070225;28;20448;-76
2022/12/03 00:06:25;;;;;;;24.00;19.40;;;;;;;;;;5070485;28;20475;-76
2022/12/03 00:08:52;;;;;;;22.73;16.80;;;;;;;;;;5071028;28;20518;-77
2022/12/03 00:11:19;;;;;;;22.70;17.10;;;;;;;;;;5070794;28;20457;-76
2022/12/03 00:13:47;;;;;;;22.90;17.50;;;;;;;;;;5062554;28;20443;-77
2022/12/03 00:16:14;;;;;;;21.80;17.90;;;;;;;;;;5059735;28;20464;-77
2022/12/03 00:18:41;;;;;;;23.07;17.30;;;;;;;;;;5070500;28;20672;-76
2022/12/03 00:21:08;;;;;;;28.10;19.00;;;;;;;;;;5070267;28;20940;-76
2022/12/03 00:23:35;;;;;;;20.93;17.13;;;;;;;;;;5069876;28;20440;-76
2022/12/03 00:26:02;;;;;;;23.50;17.97;;;;;;;;;;5070439;28;20474;-77
2022/12/03 00:28:30;;;;;;;25.57;18.53;;;;;;;;;;5070154;28;21230;-76
2022/12/03 00:30:58;;;;;;;24.27;18.00;;;;;;;;;;5070277;28;20951;-76
2022/12/03 00:33:25;;;;;;;22.90;17.50;;;;;;;;;;5069460;28;20487;-76
2022/12/03 00:35:52;;;;;;;25.47;19.17;;;;;;;;;;5070164;28;20493;-76
2022/12/03 00:38:19;;;;;;;24.83;18.37;;;;;;;;;;5070173;28;20816;-75
2022/12/03 00:40:46;;;;;;;23.27;18.53;;;;;;;;;;5070030;28;20936;-76
2022/12/03 00:43:13;;;;;;;23.77;17.87;;;;;;;;;;5070954;28;20440;-77
2022/12/03 00:45:40;;;;;;;23.00;18.17;;;;;;;;;;5073939;28;20486;-75
2022/12/03 00:48:09;;;;;;;23.63;18.07;;;;;;;;;;5074493;28;20443;-76
2022/12/03 00:50:36;;;;;;;22.13;17.70;;;;;;;;;;5074364;28;20436;-75
2022/12/03 00:53:03;;;;;;;23.10;17.63;;;;;;;;;;5074134;28;20488;-75
2022/12/03 00:55:30;;;;;;;21.77;17.20;;;;;;;;;;5074121;28;20479;-76
2022/12/03 00:57:57;;;;;;;23.30;18.20;;;;;;;;;;5074233;28;20446;-75
2022/12/03 01:00:24;;;;;;;22.57;18.23;;;;;;;;;;5073885;28;20436;-76
2022/12/03 01:02:51;;;;;;;22.40;16.93;;;;;;;;;;5073343;28;20436;-76
2022/12/03 01:05:20;;;;;;;23.60;17.73;;;;;;;;;;5073484;28;20473;-75
2022/12/03 01:07:47;;;;;;;23.73;18.63;;;;;;;;;;5074070;28;20554;-77
2022/12/03 01:10:15;;;;;;;24.63;17.87;;;;;;;;;;5073827;28;20452;-76
2022/12/03 01:12:42;;;;;;;25.27;19.33;;;;;;;;;;5072726;28;20578;-76
2022/12/03 01:15:09;;;;;;;28.07;18.70;;;;;;;;;;5073489;28;20460;-75
2022/12/03 01:17:37;;;;;;;25.53;20.20;;;;;;;;;;5075734;28;20447;-75
2022/12/03 01:20:05;;;;;;;26.63;18.93;;;;;;;;;;5076853;28;20448;-76
2022/12/03 01:22:33;;;;;;;23.03;18.13;;;;;;;;;;5075421;28;20445;-74
2022/12/03 01:25:00;;;;;;;23.67;18.13;;;;;;;;;;5075481;28;20469;-76
2022/12/03 01:27:28;;;;;;;23.67;18.93;;;;;;;;;;5074865;28;20452;-75
2022/12/03 01:29:55;;;;;;;21.03;16.90;;;;;;;;;;5074753;28;20463;-77
2022/12/03 01:32:21;;;;;;;21.17;16.30;;;;;;;;;;5073686;28;20484;-75
2022/12/03 01:34:48;;;;;;;23.47;16.60;;;;;;;;;;5073505;28;20460;-74
2022/12/03 01:37:16;;;;;;;23.67;18.07;;;;;;;;;;5074211;28;20448;-74
2022/12/03 01:39:44;;;;;;;22.70;16.47;;;;;;;;;;5076417;28;20443;-76
2022/12/03 01:42:13;;;;;;;21.07;17.00;;;;;;;;;;5075369;28;20435;-74
2022/12/03 01:44:40;;;;;;;21.83;16.93;;;;;;;;;;5074547;28;20545;-77
2022/12/03 01:47:11;;;;;;;20.20;16.17;;;;;;;;;;5075358;28;20442;-77
2022/12/03 01:49:40;;;;;;;22.57;16.97;;;;;;;;;;5073765;28;20904;-77
2022/12/03 01:52:11;;;;;;;21.70;16.90;;;;;;;;;;5073596;28;20486;-76
2022/12/03 01:54:39;;;;;;;22.90;18.50;;;;;;;;;;5071405;28;20469;-76
2022/12/03 01:57:18;;;;;;;20.00;16.87;;;;;;;;;;5072976;28;20474;-75
2022/12/03 01:59:45;;;;;;;18.83;16.03;;;;;;;;;;5072912;28;20451;-77
2022/12/03 02:02:13;;;;;;;22.50;17.57;;;;;;;;;;5072935;28;20443;-75
2022/12/03 02:04:40;;;;;;;21.97;16.00;;;;;;;;;;5071963;28;20475;-75
2022/12/03 02:07:17;;;;;;;24.00;16.70;;;;;;;;;;5072817;28;20443;-75
2022/12/03 02:09:44;;;;;;;22.23;16.10;;;;;;;;;;5093396;28;20420;-74
2022/12/03 02:12:13;;;;;;;21.03;16.57;;;;;;;;;;5097917;28;20490;-74
2022/12/03 02:14:40;;;;;;;21.67;16.90;;;;;;;;;;5077915;28;20829;-76
2022/12/03 02:17:07;;;;;;;21.07;16.90;;;;;;;;;;5073480;28;20451;-75
2022/12/03 02:19:35;;;;;;;23.70;16.70;;;;;;;;;;5073015;28;20448;-75
2022/12/03 02:22:04;;;;;;;21.47;16.40;;;;;;;;;;5091141;28;20447;-74
2022/12/03 02:24:37;;;;;;;19.03;15.47;;;;;;;;;;5094968;28;20469;-76
2022/12/03 02:27:05;;;;;;;20.83;15.50;;;;;;;;;;5074080;28;20446;-74
2022/12/03 02:29:32;;;;;;;22.17;16.83;;;;;;;;;;5072803;28;20451;-75
2022/12/03 02:31:59;;;;;;;19.87;17.43;;;;;;;;;;5072541;28;20450;-75
2022/12/03 02:34:37;;;;;;;22.10;17.80;;;;;;;;;;5075114;28;20470;-75
2022/12/03 02:37:04;;;;;;;20.30;16.57;;;;;;;;;;5092620;28;20455;-76
2022/12/03 02:39:32;;;;;;;20.53;16.10;;;;;;;;;;5091307;28;20450;-76
2022/12/03 02:44:45;;;;;;;20.13;15.10;;;;;;;;;;5078295;28;20581;-75
2022/12/03 02:47:12;;;;;;;21.37;18.10;;;;;;;;;;5084790;28;20808;-76
2022/12/03 02:49:39;;;;;;;22.87;16.50;;;;;;;;;;5073121;28;20450;-77
2022/12/03 02:52:06;;;;;;;24.50;18.23;;;;;;;;;;5072405;28;20470;-77
2022/12/03 02:54:33;;;;;;;20.27;16.90;;;;;;;;;;5071288;28;20521;-76
2022/12/03 02:57:01;;;;;;;25.00;18.80;;;;;;;;;;5071694;28;20470;-77
2022/12/03 02:59:28;;;;;;;22.47;15.97;;;;;;;;;;5072184;28;20456;-76
2022/12/03 03:02:00;;;;;;;23.87;18.30;;;;;;;;;;5071853;28;20439;-75
2022/12/03 03:04:27;;;;;;;22.27;18.03;;;;;;;;;;5071034;28;21069;-77
2022/12/03 03:06:54;;;;;;;19.40;17.30;;;;;;;;;;5071149;28;20516;-76
2022/12/03 03:09:22;;;;;;;24.00;18.33;;;;;;;;;;5071506;28;20444;-75
2022/12/03 03:11:49;;;;;;;27.07;18.37;;;;;;;;;;5071970;28;20447;-76
2022/12/03 03:14:16;;;;;;;22.20;17.30;;;;;;;;;;5060515;28;20475;-75
2022/12/03 03:16:43;;;;;;;21.60;17.60;;;;;;;;;;5052555;28;20977;-75
2022/12/03 03:19:11;;;;;;;22.00;16.80;;;;;;;;;;5052421;28;20864;-76
2022/12/03 03:21:38;;;;;;;22.37;17.43;;;;;;;;;;5051908;28;20452;-76
2022/12/03 03:24:06;;;;;;;23.37;18.30;;;;;;;;;;5050499;28;20444;-75
2022/12/03 03:26:33;;;;;;;22.50;17.77;;;;;;;;;;5051674;28;20475;-76
2022/12/03 03:29:01;;;;;;;23.67;19.00;;;;;;;;;;5051917;28;20447;-75
2022/12/03 03:31:28;;;;;;;26.43;18.30;;;;;;;;;;5051727;28;20488;-76
2022/12/03 03:33:56;;;;;;;22.97;17.80;;;;;;;;;;5050650;28;20489;-75
2022/12/03 03:36:24;;;;;;;22.77;17.03;;;;;;;;;;5051382;28;20476;-76
2022/12/03 03:38:52;;;;;;;25.47;17.77;;;;;;;;;;5052024;28;20445;-76
2022/12/03 03:41:20;;;;;;;23.87;16.53;;;;;;;;;;5050836;28;20953;-76
2022/12/03 03:43:48;;;;;;;21.97;17.03;;;;;;;;;;5050244;28;20442;-77
2022/12/03 03:46:16;;;;;;;22.77;17.17;;;;;;;;;;5053130;28;20473;-76
2022/12/03 03:48:43;;;;;;;23.07;19.07;;;;;;;;;;5070923;28;20522;-75
2022/12/03 03:51:11;;;;;;;23.60;18.47;;;;;;;;;;5070271;28;21018;-76
2022/12/03 03:53:40;;;;;;;23.57;17.07;;;;;;;;;;5069948;28;20475;-76
2022/12/03 03:56:08;;;;;;;25.83;18.83;;;;;;;;;;5070173;28;20459;-76
2022/12/03 03:58:35;;;;;;;24.87;18.47;;;;;;;;;;5070405;28;20810;-75
2022/12/03 04:01:02;;;;;;;21.77;16.93;;;;;;;;;;5070637;28;20455;-77
2022/12/03 04:03:30;;;;;;;22.20;17.60;;;;;;;;;;5070197;28;20466;-76
2022/12/03 04:05:57;;;;;;;24.63;17.57;;;;;;;;;;5070320;28;20471;-77
2022/12/03 04:08:24;;;;;;;24.53;18.17;;;;;;;;;;5070876;28;20440;-75
2022/12/03 04:13:37;;;;;;;27.00;17.40;;;;;;;;;;5070160;28;20479;-75
2022/12/03 04:16:04;;;;;;;26.10;18.60;;;;;;;;;;5070764;28;20467;-75
2022/12/03 04:18:44;;;;;;;22.63;17.60;;;;;;;;;;5069455;28;20895;-75
2022/12/03 04:23:56;;;;;;;22.30;16.23;;;;;;;;;;5069880;28;20478;-75
2022/12/03 04:29:09;;;;;;;27.23;18.53;;;;;;;;;;5070258;28;20513;-75
2022/12/03 04:37:05;;;;;;;22.77;17.87;;;;;;;;;;5070414;28;20895;-76
2022/12/03 04:39:33;;;;;;;24.10;17.80;;;;;;;;;;5095011;28;20459;-74
2022/12/03 04:42:01;;;;;;;26.00;18.23;;;;;;;;;;5094869;28;20431;-75
2022/12/03 04:44:35;;;;;;;23.73;17.83;;;;;;;;;;5074731;28;20468;-76
2022/12/03 04:47:03;;;;;;;25.47;17.73;;;;;;;;;;5070377;28;20440;-75
2022/12/03 04:49:30;;;;;;;23.50;18.00;;;;;;;;;;5069814;28;20514;-76
2022/12/03 04:51:57;;;;;;;22.40;16.93;;;;;;;;;;5069758;28;20445;-76
2022/12/03 04:54:25;;;;;;;23.90;16.90;;;;;;;;;;5069305;28;20495;-77
2022/12/03 04:56:52;;;;;;;22.70;16.47;;;;;;;;;;5069970;28;20436;-75
2022/12/03 04:59:20;;;;;;;23.40;17.53;;;;;;;;;;5069995;28;20448;-76
2022/12/03 05:01:47;;;;;;;22.77;17.63;;;;;;;;;;5069941;28;20470;-76
2022/12/03 05:04:15;;;;;;;23.83;17.80;;;;;;;;;;5069577;28;20443;-75
2022/12/03 05:06:42;;;;;;;25.37;19.20;;;;;;;;;;5069980;28;20449;-76
2022/12/03 05:09:09;;;;;;;22.60;17.10;;;;;;;;;;5070808;28;20436;-76
2022/12/03 05:11:36;;;;;;;25.93;17.50;;;;;;;;;;5070219;28;20832;-75
2022/12/03 05:14:03;;;;;;;24.10;18.00;;;;;;;;;;5069651;28;21154;-76
2022/12/03 05:16:32;;;;;;;24.57;18.90;;;;;;;;;;5070284;28;20952;-77
2022/12/03 05:18:59;;;;;;;25.37;17.47;;;;;;;;;;5072061;28;20964;-76
2022/12/03 05:21:26;;;;;;;21.83;17.07;;;;;;;;;;5073541;28;20474;-75
2022/12/03 05:23:53;;;;;;;24.80;18.70;;;;;;;;;;5074937;28;20451;-76
2022/12/03 05:26:20;;;;;;;22.67;17.00;;;;;;;;;;5071185;28;20459;-75
2022/12/03 05:28:47;;;;;;;27.07;18.50;;;;;;;;;;5066996;28;20468;-76
2022/12/03 05:31:14;;;;;;;23.10;19.10;;;;;;;;;;5053638;28;20442;-76
2022/12/03 05:33:43;;;;;;;23.77;18.70;;;;;;;;;;5053860;28;20487;-75
2022/12/03 05:36:10;;;;;;;24.80;18.17;;;;;;;;;;5055995;28;20973;-75
2022/12/03 05:38:37;;;;;;;23.40;18.00;;;;;;;;;;5066769;28;20491;-77
2022/12/03 05:42:52;;;;;;;21.93;16.60;;;;;;;;;;5065637;28;20450;-77
2022/12/03 05:43:51;;;;;;;23.53;18.43;;;;;;;;;;5057609;28;20473;-76
2022/12/03 05:46:19;;;;;;;26.30;17.03;;;;;;;;;;5060269;28;20469;-76
2022/12/03 05:48:47;;;;;;;23.97;17.60;;;;;;;;;;5053432;28;20497;-76
2022/12/03 05:51:14;;;;;;;26.10;18.20;;;;;;;;;;5053132;28;20830;-78
2022/12/03 05:53:41;;;;;;;26.30;19.83;;;;;;;;;;5053074;28;20476;-77
2022/12/03 05:56:08;;;;;;;27.83;19.20;;;;;;;;;;5053403;28;20471;-76
2022/12/03 05:58:35;;;;;;;27.83;18.90;;;;;;;;;;5052655;28;20442;-77
2022/12/03 06:01:02;;;;;;;26.70;18.33;;;;;;;;;;5052944;28;20448;-75
2022/12/03 06:03:29;;;;;;;25.63;18.10;;;;;;;;;;5052171;28;20446;-77
2022/12/03 06:05:58;;;;;;;31.03;18.67;;;;;;;;;;5052567;28;20550;-78
2022/12/03 06:08:25;;;;;;;25.60;19.23;;;;;;;;;;5052523;28;20474;-76
2022/12/03 06:10:52;;;;;;;29.53;19.43;;;;;;;;;;5052589;28;20453;-76
2022/12/03 06:13:19;;;;;;;27.47;19.67;;;;;;;;;;5052354;28;20484;-75
2022/12/03 06:15:46;;;;;;;26.37;19.60;;;;;;;;;;5052687;28;20547;-76
2022/12/03 06:18:13;;;;;;;27.50;19.43;;;;;;;;;;5052954;28;20518;-76
2022/12/03 06:20:40;;;;;;;26.17;19.67;;;;;;;;;;5052669;28;20455;-76
2022/12/03 06:23:09;;;;;;;28.30;20.07;;;;;;;;;;5051831;28;20452;-76
2022/12/03 06:25:36;;;;;;;29.50;19.63;;;;;;;;;;5052471;28;20473;-76
2022/12/03 06:28:03;;;;;;;25.97;19.40;;;;;;;;;;5052209;28;20452;-77
2022/12/03 06:30:30;;;;;;;28.03;19.77;;;;;;;;;;5052642;28;20448;-78
2022/12/03 06:32:57;;;;;;;30.40;20.23;;;;;;;;;;5051387;28;20451;-75
2022/12/03 06:35:24;;;;;;;28.40;19.20;;;;;;;;;;5052076;28;20466;-75
2022/12/03 06:37:51;;;;;;;26.00;19.03;;;;;;;;;;5051929;28;20572;-74
2022/12/03 06:40:20;;;;;;;27.53;19.33;;;;;;;;;;5051808;28;20460;-75
2022/12/03 06:42:47;;;;;;;28.10;20.43;;;;;;;;;;5051271;28;20457;-75
2022/12/03 06:45:15;;;;;;;26.80;20.13;;;;;;;;;;5061841;28;21001;-78
2022/12/03 06:47:42;;;;;;;26.57;19.70;;;;;;;;;;5069179;28;20483;-76
2022/12/03 06:50:09;;;;;;;29.30;19.23;;;;;;;;;;5052498;28;20446;-76
2022/12/03 06:52:36;;;;;;;27.07;18.53;;;;;;;;;;5051049;28;20964;-75
2022/12/03 06:55:03;;;;;;;27.43;19.13;;;;;;;;;;5051672;28;21023;-76
2022/12/03 06:57:32;;;;;;;33.70;21.00;;;;;;;;;;5051716;28;20451;-76
2022/12/03 06:59:59;;;;;;;29.40;21.43;;;;;;;;;;5051921;28;20612;-76
2022/12/03 07:02:26;;;;;;;33.07;21.73;;;;;;;;;;5051815;28;20971;-77
2022/12/03 07:04:53;;;;;;;33.73;20.57;;;;;;;;;;5051229;28;20546;-76
2022/12/03 07:07:20;;;;;;;29.73;21.30;;;;;;;;;;5051858;28;20424;-75
2022/12/03 07:09:47;;;;;;;37.27;21.63;;;;;;;;;;5053419;28;20450;-75
2022/12/03 07:12:14;;;;;;;36.10;21.07;;;;;;;;;;5072208;28;20437;-76
2022/12/03 07:14:43;;;;;;;32.90;20.63;;;;;;;;;;5071370;28;20481;-74
2022/12/03 07:17:10;;;;;;;28.27;19.60;;;;;;;;;;5075789;28;20437;-76
2022/12/03 07:19:37;;;;;;;30.30;19.50;;;;;;;;;;5052366;28;20459;-76
2022/12/03 07:22:04;;;;;;;36.40;22.43;;;;;;;;;;5052264;28;20959;-77
2022/12/03 07:24:31;;;;;;;34.13;21.67;;;;;;;;;;5051773;28;20471;-78
2022/12/03 07:26:58;;;;;;;33.60;20.97;;;;;;;;;;5054663;28;20956;-77
2022/12/03 07:29:25;;;;;;;30.20;19.50;;;;;;;;;;5054141;28;20446;-77
2022/12/03 07:31:54;;;;;;;29.27;21.13;;;;;;;;;;5051157;28;20450;-76
2022/12/03 07:34:21;;;;;;;36.07;20.40;;;;;;;;;;5050798;28;21186;-78
2022/12/03 07:36:48;;;;;;;35.20;19.77;;;;;;;;;;5051575;28;20440;-77
2022/12/03 07:39:15;;;;;;;32.80;20.90;;;;;;;;;;5051308;28;20459;-76
2022/12/03 07:41:42;;;;;;;30.80;21.57;;;;;;;;;;5058590;28;20574;-75
2022/12/03 07:44:09;;;;;;;31.47;21.20;;;;;;;;;;5070003;28;20449;-76
2022/12/03 07:46:36;;;;;;;35.90;22.07;;;;;;;;;;5071143;28;20524;-77
2022/12/03 07:49:05;;;;;;;32.60;19.03;;;;;;;;;;5056995;28;20452;-76
2022/12/03 07:51:32;;;;;;;34.53;21.13;;;;;;;;;;5057395;28;20449;-76
2022/12/03 07:53:59;;;;;;;31.83;21.17;;;;;;;;;;5069201;28;20475;-77
2022/12/03 07:56:26;;;;;;;32.23;21.17;;;;;;;;;;5071264;28;20472;-76
2022/12/03 07:58:53;;;;;;;29.50;20.23;;;;;;;;;;5072198;28;20452;-77
2022/12/03 08:01:20;;;;;;;30.93;19.93;;;;;;;;;;5072058;28;21052;-75
2022/12/03 08:03:47;;;;;;;32.90;21.80;;;;;;;;;;5070653;28;20939;-76
2022/12/03 08:06:16;;;;;;;31.20;20.33;;;;;;;;;;5070713;28;20492;-76
2022/12/03 08:08:43;;;;;;;36.10;21.97;;;;;;;;;;5070598;28;20444;-76
2022/12/03 08:11:12;;;;;;;36.17;21.40;;;;;;;;;;5072714;28;20445;-76
2022/12/03 08:13:39;;;;;;;33.23;22.13;;;;;;;;;;5064999;28;20441;-77
2022/12/03 08:16:12;;;;;;;35.13;20.70;;;;;;;;;;5051379;28;20477;-76
2022/12/03 08:18:39;;;;;;;31.50;21.67;;;;;;;;;;5052109;28;20457;-75
2022/12/03 08:21:06;;;;;;;31.63;21.50;;;;;;;;;;5054974;28;20436;-78
2022/12/03 08:23:35;;;;;;;36.47;22.13;;;;;;;;;;5065164;28;20453;-77
2022/12/03 08:26:02;;;;;;;36.00;21.60;;;;;;;;;;5054638;28;20535;-76
2022/12/03 08:28:29;;;;;;;34.80;21.87;;;;;;;;;;5051712;28;20456;-75
2022/12/03 08:31:00;;;;;;;29.00;20.67;;;;;;;;;;5063955;28;20441;-76
2022/12/03 08:33:28;;;;;;;33.67;22.13;;;;;;;;;;5072813;28;20471;-76
2022/12/03 08:35:57;;;;;;;26.67;18.80;;;;;;;;;;5083255;28;20463;-77
2022/12/03 08:38:25;;;;;;;28.20;19.20;;;;;;;;;;5088200;28;20499;-78
2022/12/03 08:40:55;;;;;;;32.03;20.90;;;;;;;;;;5075323;28;20450;-77
2022/12/03 08:43:24;;;;;;;26.27;19.60;;;;;;;;;;5078731;28;20933;-77
2022/12/03 08:45:52;;;;;;;31.23;22.17;;;;;;;;;;5086193;28;20800;-76
2022/12/03 08:48:31;;;;;;;30.80;20.17;;;;;;;;;;5072439;28;20467;-78
2022/12/03 08:50:59;;;;;;;28.03;18.77;;;;;;;;;;5071104;28;20436;-76
2022/12/03 08:53:29;;;;;;;23.90;17.10;;;;;;;;;;5070101;28;20451;-76
2022/12/03 08:55:58;;;;;;;32.73;19.20;;;;;;;;;;5065771;28;20827;-76
2022/12/03 08:58:27;;;;;;;31.10;18.43;;;;;;;;;;5070308;28;20456;-76
2022/12/03 09:00:58;;;;;;;27.00;18.20;;;;;;;;;;5070531;28;20558;-75
2022/12/03 09:03:25;;;;;;;33.43;19.77;;;;;;;;;;5069994;28;21044;-77
2022/12/03 09:05:52;;;;;;;27.63;17.80;;;;;;;;;;5075904;28;20560;-76
2022/12/03 09:08:19;;;;;;;26.80;18.30;;;;;;;;;;5074160;28;20441;-76
2022/12/03 09:10:46;;;;;;;28.60;19.47;;;;;;;;;;5074315;28;20471;-76
2022/12/03 09:13:17;;;;;;;27.87;17.90;;;;;;;;;;5073515;28;20955;-77
2022/12/03 09:15:44;;;;;;;24.67;16.30;;;;;;;;;;5074153;28;20967;-76
2022/12/03 09:18:13;;;;;;;26.50;17.97;;;;;;;;;;5073833;28;20941;-75
2022/12/03 09:20:40;;;;;;;29.57;18.87;;;;;;;;;;5071332;28;20468;-76
2022/12/03 09:23:07;;;;;;;28.00;18.40;;;;;;;;;;5072973;28;20447;-75
2022/12/03 09:25:34;;;;;;;30.37;21.50;;;;;;;;;;5073515;28;20999;-77
2022/12/03 09:28:01;;;;;;;28.13;18.90;;;;;;;;;;5072975;28;20813;-76
2022/12/03 09:30:30;;;;;;;28.93;18.60;;;;;;;;;;5064908;28;20471;-77
2022/12/03 09:32:58;;;;;;;26.13;17.83;;;;;;;;;;5071263;28;20448;-76
2022/12/03 09:35:25;;;;;;;31.17;18.27;;;;;;;;;;5065720;28;20505;-76
2022/12/03 09:37:53;;;;;;;27.47;17.77;;;;;;;;;;5062706;28;21017;-76
2022/12/03 09:40:20;;;;;;;27.60;19.40;;;;;;;;;;5064729;28;21114;-76
2022/12/03 09:42:47;;;;;;;29.93;17.90;;;;;;;;;;5063592;28;20464;-76
2022/12/03 09:45:15;;;;;;;29.60;19.40;;;;;;;;;;5073207;28;20453;-77
2022/12/03 09:47:45;;;;;;;32.13;19.40;;;;;;;;;;5073614;28;20527;-76
2022/12/03 09:50:14;;;;;;;29.53;18.70;;;;;;;;;;5075336;28;20459;-76
2022/12/03 09:52:41;;;;;;;28.30;17.43;;;;;;;;;;5071391;28;20444;-77
2022/12/03 09:55:12;;;;;;;26.27;16.73;;;;;;;;;;5072835;28;20491;-75
2022/12/03 09:57:39;;;;;;;27.93;17.33;;;;;;;;;;5072756;28;20462;-76
2022/12/03 10:00:07;;;;;;;24.30;17.33;;;;;;;;;;5072979;28;20452;-75
2022/12/03 10:02:35;;;;;;;27.80;18.37;;;;;;;;;;5072345;28;20463;-76
2022/12/03 10:05:04;;;;;;;29.17;18.83;;;;;;;;;;5072766;28;20483;-76
2022/12/03 10:07:31;;;;;;;30.87;20.07;;;;;;;;;;5072623;28;20963;-76
2022/12/03 10:09:58;;;;;;;29.63;18.90;;;;;;;;;;5072583;28;20452;-76
2022/12/03 10:12:25;;;;;;;25.43;17.73;;;;;;;;;;5072417;28;20893;-75
2022/12/03 10:14:52;;;;;;;21.83;15.33;;;;;;;;;;5071947;28;20571;-78
2022/12/03 10:17:19;;;;;;;20.10;14.30;;;;;;;;;;5072807;28;20471;-75
2022/12/03 10:19:46;;;;;;;21.40;14.77;;;;;;;;;;5072491;28;20439;-76
2022/12/03 10:22:15;;;;;;;21.00;16.03;;;;;;;;;;5072785;28;20798;-75
2022/12/03 10:24:43;;;;;;;20.47;15.37;;;;;;;;;;5071630;28;20461;-75
2022/12/03 10:27:21;;;;;;;21.20;15.77;;;;;;;;;;5072270;28;20459;-75
2022/12/03 10:29:54;;;;;;;21.30;14.27;;;;;;;;;;5078510;28;20443;-76
2022/12/03 10:32:25;;;;;;;20.37;14.67;;;;;;;;;;5091330;28;20428;-75
2022/12/03 10:35:06;;;;;;;20.57;15.30;;;;;;;;;;5092428;28;20484;-75
2022/12/03 10:37:34;;;;;;;22.73;16.17;;;;;;;;;;5084513;28;20935;-75
2022/12/03 10:40:04;;;;;;;25.50;16.47;;;;;;;;;;5076693;28;20443;-75
2022/12/03 10:42:32;;;;;;;23.00;16.00;;;;;;;;;;5076507;28;20462;-77
2022/12/03 10:45:10;;;;;;;23.53;16.37;;;;;;;;;;5072758;28;20464;-76
2022/12/03 10:47:38;;;;;;;19.80;15.13;;;;;;;;;;5072026;28;20449;-76
2022/12/03 10:50:06;;;;;;;22.87;16.33;;;;;;;;;;5069835;28;20454;-76
2022/12/03 10:52:34;;;;;;;24.13;18.00;;;;;;;;;;5060988;28;20538;-74
2022/12/03 10:55:02;;;;;;;21.50;15.07;;;;;;;;;;5069328;28;21067;-76
2022/12/03 10:57:29;;;;;;;24.73;16.10;;;;;;;;;;5071399;28;20474;-77
2022/12/03 10:59:56;;;;;;;21.10;14.87;;;;;;;;;;5071489;28;20454;-76
2022/12/03 11:02:24;;;;;;;21.70;15.80;;;;;;;;;;5071703;28;20577;-75
2022/12/03 11:04:51;;;;;;;21.03;16.13;;;;;;;;;;5072143;28;20464;-76
2022/12/03 11:07:20;;;;;;;24.83;17.03;;;;;;;;;;5068045;28;20455;-75
2022/12/03 11:09:49;;;;;;;24.40;16.83;;;;;;;;;;5067919;28;20455;-76
2022/12/03 11:12:18;;;;;;;21.80;16.93;;;;;;;;;;5051422;28;20445;-75
2022/12/03 11:15:05;;;;;;;20.73;15.27;;;;;;;;;;5066754;28;20528;-76
2022/12/03 11:17:48;;;;;;;22.97;16.10;;;;;;;;;;5072476;28;20448;-75
2022/12/03 11:20:34;;;;;;;23.60;16.60;;;;;;;;;;5083015;28;20436;-76
2022/12/03 11:23:01;;;;;;;25.57;17.80;;;;;;;;;;5092095;28;20440;-75
2022/12/03 11:25:46;;;;;;;24.60;17.33;;;;;;;;;;5090589;28;20466;-75
2022/12/03 11:28:36;;;;;;;23.63;16.40;;;;;;;;;;5073953;28;20993;-76
2022/12/03 11:31:08;;;;;;;22.97;16.40;;;;;;;;;;5072613;28;20953;-76
2022/12/03 11:33:36;;;;;;;21.47;15.87;;;;;;;;;;5072245;28;20458;-74
2022/12/03 11:36:19;;;;;;;26.20;16.77;;;;;;;;;;5074616;28;20513;-76
2022/12/03 11:38:50;;;;;;;19.57;14.93;;;;;;;;;;5085545;28;20428;-76
2022/12/03 11:41:19;;;;;;;24.83;16.73;;;;;;;;;;5075491;28;20836;-75
2022/12/03 11:44:00;;;;;;;25.60;17.70;;;;;;;;;;5074744;28;20452;-76
2022/12/03 11:46:28;;;;;;;33.50;23.47;;;;;;;;;;5084314;28;20496;-75
2022/12/03 11:48:57;;;;;;;23.40;17.20;;;;;;;;;;5074295;28;20448;-76
2022/12/03 11:51:25;;;;;;;24.47;15.63;;;;;;;;;;5071316;28;20452;-75
2022/12/03 11:53:53;;;;;;;24.83;18.23;;;;;;;;;;5070414;28;20448;-76
2022/12/03 11:56:23;;;;;;;20.93;15.23;;;;;;;;;;5071677;28;20868;-75
2022/12/03 11:58:57;;;;;;;20.17;14.60;;;;;;;;;;5071524;28;20454;-75
2022/12/03 12:01:32;;;;;;;20.00;14.50;;;;;;;;;;5071944;28;20444;-75
2022/12/03 12:03:59;;;;;;;20.93;14.80;;;;;;;;;;5070873;28;20447;-76
2022/12/03 12:06:26;;;;;;;21.00;14.43;;;;;;;;;;5070308;28;20483;-77
2022/12/03 12:08:57;;;;;;;18.83;12.97;;;;;;;;;;5070734;28;20440;-74
2022/12/03 12:11:28;;;;;;;24.30;14.60;;;;;;;;;;5070676;28;20947;-75
2022/12/03 12:13:57;;;;;;;17.57;13.17;;;;;;;;;;5061145;28;20449;-76
2022/12/03 12:16:37;;;;;;;18.67;12.50;;;;;;;;;;5050466;28;20524;-75
2022/12/03 12:19:19;;;;;;;20.03;13.13;;;;;;;;;;5050258;28;20962;-76
2022/12/03 12:21:47;;;;;;;17.90;13.00;;;;;;;;;;5057157;28;20448;-75
2022/12/03 12:24:35;;;;;;;18.43;12.53;;;;;;;;;;5069026;28;20489;-74
2022/12/03 12:27:05;;;;;;;18.07;12.60;;;;;;;;;;5070260;28;20482;-74
2022/12/03 12:29:32;;;;;;;17.13;12.57;;;;;;;;;;5070344;28;20433;-75
2022/12/03 12:32:14;;;;;;;20.33;13.40;;;;;;;;;;5070627;28;20446;-74
2022/12/03 12:34:42;;;;;;;17.23;12.70;;;;;;;;;;5070116;28;20811;-76
2022/12/03 12:37:11;;;;;;;20.23;14.70;;;;;;;;;;5069989;28;20852;-75
2022/12/03 12:39:38;;;;;;;18.50;13.13;;;;;;;;;;5069795;28;20442;-75
2022/12/03 12:42:19;;;;;;;32.10;24.97;;;;;;;;;;5070934;28;20445;-74
2022/12/03 12:44:46;;;;;;;19.77;13.77;;;;;;;;;;5070068;28;20911;-74
2022/12/03 12:47:13;;;;;;;19.90;13.53;;;;;;;;;;5070154;28;20966;-74
2022/12/03 12:49:40;;;;;;;19.17;13.57;;;;;;;;;;5070726;28;20442;-75
2022/12/03 12:52:12;;;;;;;19.37;14.03;;;;;;;;;;5070890;28;20461;-75
2022/12/03 12:54:39;;;;;;;22.93;13.27;;;;;;;;;;5069828;28;20481;-75
2022/12/03 12:57:12;;;;;;;21.50;13.40;;;;;;;;;;5069784;28;20478;-74
2022/12/03 12:59:39;;;;;;;18.37;13.80;;;;;;;;;;5070295;28;20455;-75
2022/12/03 13:02:21;;;;;;;20.27;14.57;;;;;;;;;;5070437;28;20448;-73
2022/12/03 13:04:48;;;;;;;20.60;13.00;;;;;;;;;;5069557;28;20537;-74
2022/12/03 13:07:15;;;;;;;18.67;12.93;;;;;;;;;;5070295;28;20454;-74
2022/12/03 13:09:42;;;;;;;18.93;13.37;;;;;;;;;;5069721;28;20965;-74
2022/12/03 13:12:19;;;;;;;19.80;13.53;;;;;;;;;;5069855;28;20763;-75
2022/12/03 13:14:46;;;;;;;22.10;13.30;;;;;;;;;;5069417;28;20463;-75
2022/12/03 13:17:13;;;;;;;17.83;13.80;;;;;;;;;;5069880;28;20486;-75
2022/12/03 13:19:41;;;;;;;22.83;15.53;;;;;;;;;;5069688;28;20516;-76
2022/12/03 13:22:11;;;;;;;18.47;13.10;;;;;;;;;;5069601;28;20451;-75
2022/12/03 13:24:39;;;;;;;18.50;14.00;;;;;;;;;;5068880;28;20567;-77
2022/12/03 13:27:21;;;;;;;20.50;13.73;;;;;;;;;;5067392;28;20826;-74
2022/12/03 13:29:51;;;;;;;21.57;14.87;;;;;;;;;;5069838;28;20431;-75
2022/12/03 13:32:21;;;;;;;24.30;15.47;;;;;;;;;;5069348;28;20436;-74
2022/12/03 13:34:49;;;;;;;19.30;13.60;;;;;;;;;;5068858;28;20459;-74
2022/12/03 13:37:16;;;;;;;22.20;14.63;;;;;;;;;;5069484;28;20515;-74
2022/12/03 13:39:46;;;;;;;24.70;14.10;;;;;;;;;;5067484;28;20446;-75
2022/12/03 13:45:02;;;;;;;20.10;13.93;;;;;;;;;;5069848;28;20495;-76
2022/12/03 13:47:29;;;;;;;21.57;13.50;;;;;;;;;;5068062;28;20441;-74
2022/12/03 13:49:57;;;;;;;23.07;14.97;;;;;;;;;;5071654;28;20451;-75
2022/12/03 13:52:26;;;;;;;27.37;15.27;;;;;;;;;;5075134;28;20501;-75
2022/12/03 13:54:53;;;;;;;21.60;14.80;;;;;;;;;;5074717;28;20462;-74
2022/12/03 13:57:22;;;;;;;26.50;14.87;;;;;;;;;;5074636;28;20471;-74
2022/12/03 13:59:49;;;;;;;22.23;14.83;;;;;;;;;;5074623;28;20446;-74
2022/12/03 14:02:16;;;;;;;20.50;13.77;;;;;;;;;;5074346;28;20930;-75
2022/12/03 14:04:43;;;;;;;20.90;15.00;;;;;;;;;;5072052;28;21281;-74
2022/12/03 14:07:10;;;;;;;23.03;15.13;;;;;;;;;;5071582;28;20435;-77
2022/12/03 14:09:37;;;;;;;24.70;15.93;;;;;;;;;;5073503;28;20448;-75
2022/12/03 14:14:51;;;;;;;23.43;15.30;;;;;;;;;;5082487;28;20470;-75
2022/12/03 14:17:18;;;;;;;21.50;14.87;;;;;;;;;;5093402;28;20467;-74
2022/12/03 14:19:45;;;;;;;19.77;14.73;;;;;;;;;;5089947;28;20460;-74
2022/12/03 14:22:12;;;;;;;20.67;13.60;;;;;;;;;;5083409;28;20438;-75
2022/12/03 14:24:40;;;;;;;18.37;14.03;;;;;;;;;;5077446;28;20469;-75
2022/12/03 14:27:07;;;;;;;23.03;15.40;;;;;;;;;;5073436;28;20444;-75
2022/12/03 14:29:34;;;;;;;24.53;15.70;;;;;;;;;;5072681;28;20460;-75
2022/12/03 14:32:02;;;;;;;21.07;13.57;;;;;;;;;;5073145;28;20447;-76
2022/12/03 14:34:29;;;;;;;22.20;13.77;;;;;;;;;;5070710;28;20467;-77
2022/12/03 14:36:56;;;;;;;40.93;29.60;;;;;;;;;;5070709;28;20469;-74
2022/12/03 14:39:23;;;;;;;23.73;16.40;;;;;;;;;;5078353;28;20447;-75
2022/12/03 14:44:35;;;;;;;20.80;14.00;;;;;;;;;;5073663;28;20484;-77
2022/12/03 14:47:04;;;;;;;20.00;14.07;;;;;;;;;;5075823;28;20932;-76
2022/12/03 14:49:31;;;;;;;25.17;15.90;;;;;;;;;;5072990;28;20445;-74